createdAt,value
2018-12-03T00:00:56.808Z,94902.16
2018-12-03T00:03:27.830Z,94906.34
2018-12-03T00:05:58.251Z,94897.86
2018-12-03T00:08:28.759Z,94903.34
2018-12-03T00:10:59.172Z,94912.53
2018-12-03T00:13:29.567Z,94907.40
2018-12-03T00:16:00.021Z,94922.08
2018-12-03T00:18:30.320Z,94916.79
2018-12-03T00:21:01.124Z,94905.12
2018-12-03T00:23:31.571Z,94907.40
2018-12-03T00:26:01.974Z,94906.33
2018-12-03T00:28:32.514Z,94910.41
2018-12-03T00:31:02.938Z,94915.13
2018-12-03T00:33:33.450Z,94903.17
2018-12-03T00:36:03.936Z,94904.77
2018-12-03T00:41:55.050Z,94901.39
2018-12-03T00:44:25.566Z,94901.39
2018-12-03T00:46:55.978Z,94910.73
2018-12-03T00:49:26.307Z,94909.22
2018-12-03T00:51:56.693Z,94902.95
2018-12-03T00:54:27.194Z,94904.81
2018-12-03T00:56:57.590Z,94921.34
2018-12-03T01:02:25.148Z,94921.77
2018-12-03T01:04:56.241Z,94917.53
2018-12-03T01:07:26.861Z,94909.52
2018-12-03T01:09:57.465Z,94910.97
2018-12-03T01:12:27.877Z,94910.00
2018-12-03T01:14:58.291Z,94915.50
2018-12-03T01:17:29.403Z,94913.73
2018-12-03T01:19:59.725Z,94926.17
2018-12-03T01:22:30.041Z,94917.95
2018-12-03T01:25:00.357Z,94923.77
2018-12-03T01:27:30.891Z,94919.45
2018-12-03T01:30:01.224Z,94920.95
2018-12-03T01:32:31.754Z,94914.26
2018-12-03T01:35:02.067Z,94906.53
2018-12-03T01:37:32.439Z,94924.66
2018-12-03T01:40:02.863Z,94907.89
2018-12-03T01:42:33.286Z,94906.37
2018-12-03T01:45:03.891Z,94903.34
2018-12-03T01:47:35.021Z,94917.70
2018-12-03T01:50:07.230Z,94906.95
2018-12-03T01:52:37.903Z,94905.43
2018-12-03T01:55:12.707Z,94910.81
2018-12-03T01:57:43.093Z,94909.59
2018-12-03T02:00:17.855Z,94905.52
2018-12-03T02:02:49.279Z,94896.08
2018-12-03T02:05:19.706Z,94901.89
2018-12-03T02:07:51.350Z,94899.22
2018-12-03T02:10:22.074Z,94892.66
2018-12-03T02:12:55.141Z,94897.67
2018-12-03T02:15:25.870Z,94899.65
2018-12-03T02:17:56.645Z,94895.62
2018-12-03T02:20:27.354Z,94897.70
2018-12-03T02:22:58.145Z,94888.41
2018-12-03T02:25:28.964Z,94897.02
2018-12-03T02:27:59.772Z,94893.28
2018-12-03T02:30:30.572Z,94892.83
2018-12-03T02:33:01.284Z,94887.69
2018-12-03T02:35:32.084Z,94885.03
2018-12-03T02:38:02.850Z,94887.69
2018-12-03T02:40:33.714Z,94883.41
2018-12-03T02:43:04.597Z,94888.41
2018-12-03T02:45:35.313Z,94896.17
2018-12-03T02:48:06.360Z,94893.05
2018-12-03T02:50:37.098Z,94900.06
2018-12-03T02:53:08.507Z,94897.53
2018-12-03T02:55:39.231Z,94898.05
2018-12-03T02:58:10.020Z,94904.02
2018-12-03T03:00:42.563Z,94905.59
2018-12-03T03:03:13.368Z,94914.38
2018-12-03T03:05:44.330Z,94901.54
2018-12-03T03:08:15.148Z,94903.28
2018-12-03T03:10:45.959Z,94913.31
2018-12-03T03:13:16.645Z,94907.11
2018-12-03T03:15:47.349Z,94906.34
2018-12-03T03:18:18.161Z,94904.03
2018-12-03T03:20:48.875Z,94911.95
2018-12-03T03:23:19.729Z,94904.64
2018-12-03T03:25:50.764Z,94923.28
2018-12-03T03:28:21.526Z,94911.10
2018-12-03T03:30:52.326Z,94917.86
2018-12-03T03:33:23.154Z,94910.89
2018-12-03T03:35:53.954Z,94907.88
2018-12-03T03:38:24.667Z,94910.64
2018-12-03T03:40:55.417Z,94915.39
2018-12-03T03:43:26.187Z,94917.40
2018-12-03T03:45:56.888Z,94924.27
2018-12-03T03:48:27.601Z,94920.47
2018-12-03T03:50:58.388Z,94920.67
2018-12-03T03:53:29.126Z,94918.47
2018-12-03T03:55:59.907Z,94920.50
2018-12-03T03:58:30.697Z,94924.56
2018-12-03T04:01:01.549Z,94921.95
2018-12-03T04:03:32.389Z,94918.67
2018-12-03T04:06:03.307Z,94922.65
2018-12-03T04:08:34.105Z,94919.98
2018-12-03T04:11:04.820Z,94923.26
2018-12-03T04:13:35.823Z,94912.76
2018-12-03T04:16:06.784Z,94912.27
2018-12-03T04:18:37.496Z,94908.17
2018-12-03T04:21:08.312Z,94917.59
2018-12-03T04:23:39.040Z,94918.61
2018-12-03T04:26:09.956Z,94907.83
2018-12-03T04:28:40.661Z,94913.28
2018-12-03T04:31:11.323Z,94929.43
2018-12-03T04:33:42.052Z,94924.47
2018-12-03T04:36:13.065Z,94928.75
2018-12-03T04:38:43.761Z,94918.96
2018-12-03T04:41:14.852Z,94926.56
2018-12-03T04:43:45.517Z,94930.42
2018-12-03T04:46:16.191Z,94927.02
2018-12-03T04:48:46.899Z,94923.45
2018-12-03T04:51:17.621Z,94926.57
2018-12-03T04:53:48.328Z,94917.02
2018-12-03T04:56:19.011Z,94913.09
2018-12-03T04:58:49.682Z,94908.87
2018-12-03T05:01:20.571Z,94904.13
2018-12-03T05:03:51.283Z,94902.41
2018-12-03T05:06:22.002Z,94907.12
2018-12-03T05:08:52.696Z,94905.13
2018-12-03T05:11:23.360Z,94910.46
2018-12-03T05:13:54.051Z,94908.55
2018-12-03T05:16:24.778Z,94905.88
2018-12-03T05:18:55.454Z,94905.88
2018-12-03T05:21:26.113Z,94911.11
2018-12-03T05:23:56.917Z,94913.84
2018-12-03T05:26:27.589Z,94904.28
2018-12-03T05:28:58.300Z,94909.06
2018-12-03T05:31:28.964Z,94909.16
2018-12-03T05:33:59.777Z,94917.93
2018-12-03T05:36:30.833Z,94913.32
2018-12-03T05:39:01.866Z,94910.14
2018-12-03T05:41:32.549Z,94913.88
2018-12-03T05:44:03.325Z,94923.48
2018-12-03T05:46:34.864Z,94908.67
2018-12-03T05:49:05.625Z,94921.28
2018-12-03T05:51:36.336Z,94922.13
2018-12-03T05:54:07.187Z,94916.92
2018-12-03T05:56:37.942Z,94910.55
2018-12-03T05:59:08.554Z,94915.56
2018-12-03T06:01:39.317Z,94920.53
2018-12-03T06:04:10.073Z,94929.46
2018-12-03T06:06:40.763Z,94920.59
2018-12-03T06:09:11.441Z,94914.58
2018-12-03T06:11:42.150Z,94924.69
2018-12-03T06:14:12.868Z,94930.95
2018-12-03T06:16:43.640Z,94924.95
2018-12-03T06:19:14.490Z,94941.41
2018-12-03T06:21:47.182Z,94938.85
2018-12-03T06:24:18.718Z,94926.93
2018-12-03T06:26:49.450Z,94936.02
2018-12-03T06:29:20.197Z,94927.02
2018-12-03T06:31:50.905Z,94925.50
2018-12-03T06:34:21.612Z,94928.36
2018-12-03T06:36:52.314Z,94927.91
2018-12-03T06:39:23.177Z,94943.59
2018-12-03T06:41:53.800Z,94934.40
2018-12-03T06:44:24.514Z,94940.12
2018-12-03T06:46:55.194Z,94941.88
2018-12-03T06:49:25.962Z,94947.61
2018-12-03T06:51:56.759Z,94953.27
2018-12-03T06:54:27.541Z,94954.55
2018-12-03T06:56:58.380Z,94944.86
2018-12-03T06:59:29.039Z,94957.59
2018-12-03T07:01:59.716Z,94972.73
2018-12-03T07:04:30.446Z,94963.18
2018-12-03T07:07:01.136Z,94963.87
2018-12-03T07:09:31.780Z,94970.30
2018-12-03T07:12:02.492Z,94975.75
2018-12-03T07:14:33.249Z,94963.37
2018-12-03T07:17:03.983Z,94965.02
2018-12-03T07:19:34.720Z,94971.09
2018-12-03T07:22:05.477Z,94968.12
2018-12-03T07:24:36.138Z,94967.23
2018-12-03T07:27:07.004Z,94967.33
2018-12-03T07:29:37.714Z,94973.70
2018-12-03T07:32:08.434Z,94974.45
2018-12-03T07:34:39.524Z,94979.09
2018-12-03T07:37:10.203Z,94974.90
2018-12-03T07:39:40.938Z,94989.98
2018-12-03T07:42:11.757Z,94981.36
2018-12-03T07:44:42.489Z,94970.89
2018-12-03T07:47:13.259Z,94962.70
2018-12-03T07:49:44.028Z,94977.39
2018-12-03T07:52:14.738Z,94973.92
2018-12-03T07:54:45.416Z,94978.21
2018-12-03T07:57:16.204Z,94992.61
2018-12-03T07:59:46.947Z,94981.62
2018-12-03T08:02:17.658Z,94992.25
2018-12-03T08:04:48.462Z,94984.05
2018-12-03T08:07:19.243Z,94977.92
2018-12-03T08:09:49.919Z,94977.00
2018-12-03T08:12:20.601Z,94975.89
2018-12-03T08:14:51.387Z,94975.27
2018-12-03T08:17:22.159Z,94990.55
2018-12-03T08:19:56.500Z,94977.74
2018-12-03T08:22:25.396Z,94985.94
2018-12-03T08:24:56.221Z,94974.71
2018-12-03T08:27:27.221Z,94999.97
2018-12-03T08:29:58.968Z,94994.03
2018-12-03T08:32:29.705Z,94997.86
2018-12-03T08:35:00.483Z,94992.10
2018-12-03T08:37:31.208Z,95005.33
2018-12-03T08:40:01.860Z,95012.16
2018-12-03T08:42:32.554Z,95000.34
2018-12-03T08:45:03.278Z,94990.30
2018-12-03T08:47:34.001Z,94999.13
2018-12-03T08:50:08.419Z,94996.25
2018-12-03T08:52:39.209Z,95000.60
2018-12-03T08:55:12.722Z,95012.64
2018-12-03T08:57:43.494Z,95010.66
2018-12-03T09:00:15.898Z,95004.96
2018-12-03T09:03:06.758Z,95002.70
2018-12-03T09:05:40.884Z,94999.34
2018-12-03T09:08:12.777Z,95011.27
2018-12-03T09:10:44.715Z,95002.14
2018-12-03T09:13:22.618Z,95012.89
2018-12-03T09:16:00.828Z,95005.42
2018-12-03T09:18:35.370Z,95022.31
2018-12-03T09:21:10.449Z,94998.20
2018-12-03T09:23:41.986Z,95010.44
2018-12-03T09:26:13.087Z,95003.53
2018-12-03T09:28:43.807Z,95005.03
2018-12-03T09:31:24.607Z,95013.08
2018-12-03T09:34:01.390Z,95019.28
2018-12-03T09:36:32.226Z,95024.77
2018-12-03T09:39:14.188Z,95033.73
2018-12-03T09:41:45.380Z,95013.13
2018-12-03T09:44:16.193Z,95020.61
2018-12-03T09:46:46.893Z,95021.34
2018-12-03T09:49:17.580Z,95001.25
2018-12-03T09:51:48.296Z,95015.52
2018-12-03T09:54:19.008Z,95005.77
2018-12-03T09:56:51.303Z,95003.89
2018-12-03T09:59:23.973Z,94996.40
2018-12-03T10:02:00.336Z,94990.59
2018-12-03T10:04:41.958Z,94992.52
2018-12-03T10:07:19.881Z,94985.06
2018-12-03T10:09:50.643Z,94987.30
2018-12-03T10:12:21.367Z,94979.08
2018-12-03T10:14:52.064Z,94985.61
2018-12-03T10:17:22.731Z,94979.48
2018-12-03T10:19:53.537Z,95012.06
2018-12-03T10:22:24.247Z,94991.09
2018-12-03T10:24:54.913Z,94988.20
2018-12-03T10:27:25.632Z,94980.81
2018-12-03T10:29:56.743Z,94975.56
2018-12-03T10:32:27.584Z,94979.49
2018-12-03T10:34:58.408Z,94975.28
2018-12-03T10:37:29.225Z,94975.67
2018-12-03T10:39:59.968Z,94976.45
2018-12-03T10:42:30.930Z,94975.34
2018-12-03T10:45:01.655Z,94977.41
2018-12-03T10:47:32.328Z,94975.09
2018-12-03T10:50:07.145Z,94956.72
2018-12-03T10:52:37.871Z,94984.27
2018-12-03T10:55:10.763Z,94966.30
2018-12-03T10:57:42.526Z,94959.27
2018-12-03T11:00:34.681Z,94950.36
2018-12-03T11:03:34.193Z,94956.34
2018-12-03T11:06:18.953Z,94952.19
2018-12-03T11:08:50.323Z,94954.31
2018-12-03T11:11:21.133Z,94963.66
2018-12-03T11:13:51.825Z,94940.24
2018-12-03T11:16:33.028Z,94956.68
2018-12-03T11:19:03.759Z,94964.72
2018-12-03T11:21:34.498Z,94953.41
2018-12-03T11:24:05.740Z,94933.69
2018-12-03T11:26:39.238Z,94931.60
2018-12-03T11:29:10.893Z,94914.69
2018-12-03T11:31:41.638Z,94922.21
2018-12-03T11:34:12.432Z,94912.41
2018-12-03T11:36:48.318Z,94904.13
2018-12-03T11:39:24.097Z,94903.73
2018-12-03T11:42:05.381Z,94921.19
2018-12-03T11:44:36.103Z,94898.38
2018-12-03T11:47:06.937Z,94904.70
2018-12-03T11:49:37.693Z,94895.73
2018-12-03T11:52:08.996Z,94885.48
2018-12-03T11:54:39.689Z,94894.42
2018-12-03T11:57:10.527Z,94894.81
2018-12-03T11:59:41.309Z,94871.84
2018-12-03T12:02:12.082Z,94876.53
2018-12-03T12:04:42.780Z,94877.94
2018-12-03T12:07:13.515Z,94862.90
2018-12-03T12:09:44.539Z,94862.49
2018-12-03T12:12:15.281Z,94868.06
2018-12-03T12:14:46.007Z,94851.05
2018-12-03T12:17:16.816Z,94863.58
2018-12-03T12:19:47.528Z,94851.30
2018-12-03T12:22:18.632Z,94839.81
2018-12-03T12:24:49.354Z,94829.89
2018-12-03T12:27:20.146Z,94817.49
2018-12-03T12:29:50.836Z,94814.93
2018-12-03T12:32:24.482Z,94829.99
2018-12-03T12:34:55.219Z,94822.61
2018-12-03T12:37:26.038Z,94810.75
2018-12-03T12:39:56.871Z,94810.27
2018-12-03T12:42:31.709Z,94822.12
2018-12-03T12:45:00.156Z,94833.33
2018-12-03T12:47:30.864Z,94806.56
2018-12-03T12:50:01.620Z,94817.02
2018-12-03T12:52:32.406Z,94802.94
2018-12-03T12:55:03.070Z,94808.42
2018-12-03T12:57:33.810Z,94787.11
2018-12-03T13:00:04.892Z,94790.48
2018-12-03T13:02:35.585Z,94779.15
2018-12-03T13:05:06.412Z,94778.94
2018-12-03T13:07:37.148Z,94776.38
2018-12-03T13:10:16.635Z,94764.99
2018-12-03T13:12:49.991Z,94759.46
2018-12-03T13:15:20.713Z,94768.33
2018-12-03T13:17:51.420Z,94772.48
2018-12-03T13:20:22.160Z,94766.61
2018-12-03T13:22:52.876Z,94775.22
2018-12-03T13:25:23.702Z,94773.39
2018-12-03T13:27:55.679Z,94786.30
2018-12-03T13:30:26.507Z,94772.09
2018-12-03T13:32:57.311Z,94777.22
2018-12-03T13:35:29.234Z,94768.98
2018-12-03T13:38:00.098Z,94764.06
2018-12-03T13:40:30.814Z,94762.55
2018-12-03T13:43:01.510Z,94751.94
2018-12-03T13:45:32.323Z,94753.52
2018-12-03T13:48:03.478Z,94762.77
2018-12-03T13:50:34.204Z,94759.70
2018-12-03T13:53:05.045Z,94762.69
2018-12-03T13:55:35.752Z,94770.50
2018-12-03T13:58:06.745Z,94754.68
2018-12-03T14:00:37.580Z,94761.54
2018-12-03T14:03:22.891Z,94757.77
2018-12-03T14:06:19.779Z,94753.98
2018-12-03T14:09:40.470Z,94765.50
2018-12-03T14:12:31.349Z,94758.51
2018-12-03T14:15:15.716Z,94777.48
2018-12-03T14:18:22.409Z,94774.96
2018-12-03T14:20:54.544Z,94770.63
2018-12-03T14:23:32.094Z,94774.91
2018-12-03T14:26:02.898Z,94774.91
2018-12-03T14:28:33.627Z,94779.69
2018-12-03T14:31:04.345Z,94791.31
2018-12-03T14:33:35.062Z,94794.38
2018-12-03T14:36:05.787Z,94789.45
2018-12-03T14:38:36.470Z,94787.22
2018-12-03T14:41:07.228Z,94778.68
2018-12-03T14:43:37.933Z,94776.30
2018-12-03T14:46:08.640Z,94792.00
2018-12-03T14:48:39.317Z,94781.14
2018-12-03T14:51:10.111Z,94782.34
2018-12-03T14:53:40.898Z,94788.05
2018-12-03T14:56:11.601Z,94782.86
2018-12-03T14:58:42.446Z,94788.64
2018-12-03T15:01:13.168Z,94788.91
2018-12-03T15:03:43.921Z,94792.36
2018-12-03T15:06:14.636Z,94783.93
2018-12-03T15:08:45.450Z,94788.14
2018-12-03T15:11:20.445Z,94802.45
2018-12-03T15:13:51.196Z,94784.24
2018-12-03T15:16:21.949Z,94782.10
2018-12-03T15:18:52.678Z,94789.91
2018-12-03T15:21:23.625Z,94793.93
2018-12-03T15:23:54.321Z,94781.35
2018-12-03T15:26:25.142Z,94791.19
2018-12-03T15:28:55.889Z,94791.69
2018-12-03T15:31:26.672Z,94784.14
2018-12-03T15:33:57.432Z,94784.39
2018-12-03T15:36:28.152Z,94783.17
2018-12-03T15:38:58.963Z,94780.88
2018-12-03T15:41:29.677Z,94791.59
2018-12-03T15:44:00.361Z,94786.17
2018-12-03T15:46:31.160Z,94824.88
2018-12-03T15:49:02.018Z,94788.30
2018-12-03T15:51:32.875Z,94786.83
2018-12-03T15:54:03.773Z,94778.95
2018-12-03T15:56:34.548Z,94784.18
2018-12-03T15:59:06.396Z,94781.61
2018-12-03T16:01:37.227Z,94787.42
2018-12-03T16:04:07.959Z,94784.53
2018-12-03T16:06:38.792Z,94775.75
2018-12-03T16:09:12.315Z,94779.61
2018-12-03T16:11:43.094Z,94786.37
2018-12-03T16:14:13.779Z,94784.44
2018-12-03T16:16:44.486Z,94790.26
2018-12-03T16:19:15.321Z,94791.69
2018-12-03T16:21:46.039Z,94781.54
2018-12-03T16:24:17.044Z,94772.92
2018-12-03T16:26:47.779Z,94764.95
2018-12-03T16:29:18.469Z,94771.23
2018-12-03T16:31:49.263Z,94766.42
2018-12-03T16:34:19.997Z,94769.31
2018-12-03T16:36:50.664Z,94785.59
2018-12-03T16:39:21.374Z,94781.63
2018-12-03T16:41:52.177Z,94788.64
2018-12-03T16:44:22.954Z,94784.38
2018-12-03T16:46:53.649Z,94796.55
2018-12-03T16:49:24.327Z,94788.57
2018-12-03T16:51:55.022Z,94793.61
2018-12-03T16:54:25.803Z,94783.00
2018-12-03T16:56:56.560Z,94786.11
2018-12-03T16:59:27.348Z,94791.98
2018-12-03T17:01:58.108Z,94783.94
2018-12-03T17:04:28.832Z,94779.27
2018-12-03T17:06:59.544Z,94767.19
2018-12-03T17:09:30.290Z,94769.93
2018-12-03T17:12:01.049Z,94772.42
2018-12-03T17:14:31.775Z,94764.86
2018-12-03T17:17:02.533Z,94769.47
2018-12-03T17:19:33.326Z,94766.63
2018-12-03T17:22:16.849Z,94772.20
2018-12-03T17:24:48.614Z,94761.81
2018-12-03T17:27:19.353Z,94758.70
2018-12-03T17:29:50.186Z,94785.27
2018-12-03T17:32:21.112Z,94749.02
2018-12-03T17:34:51.868Z,94767.75
2018-12-03T17:37:22.734Z,94752.73
2018-12-03T17:39:53.465Z,94749.80
2018-12-03T17:42:24.358Z,94750.30
2018-12-03T17:44:55.112Z,94760.28
2018-12-03T17:47:25.836Z,94753.22
2018-12-03T17:49:56.525Z,94750.80
2018-12-03T17:52:27.243Z,94753.12
2018-12-03T17:54:57.963Z,94748.52
2018-12-03T17:57:29.090Z,94749.34
2018-12-03T17:59:59.972Z,94751.08
2018-12-03T18:02:30.721Z,94741.19
2018-12-03T18:05:01.511Z,94746.81
2018-12-03T18:07:32.492Z,94742.02
2018-12-03T18:10:03.244Z,94734.67
2018-12-03T18:12:34.112Z,94742.48
2018-12-03T18:15:05.197Z,94737.35
2018-12-03T18:17:35.906Z,94735.10
2018-12-03T18:23:31.287Z,94852.00
2018-12-03T18:26:00.536Z,94836.76
2018-12-03T18:28:30.862Z,94834.03
2018-12-03T18:30:59.961Z,94831.54
2018-12-03T18:33:29.532Z,94821.38
2018-12-03T18:35:58.911Z,94814.07
2018-12-03T18:38:28.241Z,94817.13
2018-12-03T18:41:03.163Z,94813.77
2018-12-03T18:43:29.160Z,94764.16
2018-12-03T18:45:58.532Z,94826.88
2018-12-03T18:48:27.904Z,94816.38
2018-12-03T18:50:57.292Z,94810.98
2018-12-03T18:53:28.129Z,94814.27
2018-12-03T18:55:57.534Z,94807.69
2018-12-03T18:58:36.810Z,94805.88
2018-12-03T19:01:06.262Z,94808.17
2018-12-03T19:03:35.682Z,94800.06
2018-12-03T19:06:05.796Z,94796.98
2018-12-03T19:08:35.284Z,94796.03
2018-12-03T19:11:04.818Z,94780.14
2018-12-03T19:13:34.573Z,94782.61
2018-12-03T19:16:03.992Z,94782.45
2018-12-03T19:18:33.339Z,94780.97
2018-12-03T19:21:02.855Z,94783.08
2018-12-03T19:23:32.238Z,94776.97
2018-12-03T19:26:02.904Z,94779.96
2018-12-03T19:28:32.416Z,94774.23
2018-12-03T19:31:01.816Z,94766.67
2018-12-03T19:33:31.147Z,94772.02
2018-12-03T19:36:00.469Z,94767.36
2018-12-03T19:38:29.808Z,94759.20
2018-12-03T19:40:59.145Z,94757.16
2018-12-03T19:43:28.972Z,94761.13
2018-12-03T19:45:58.388Z,94752.67
2018-12-03T19:48:27.715Z,94768.75
2018-12-03T19:50:57.063Z,94757.76
2018-12-03T19:53:26.416Z,94770.50
2018-12-03T19:55:55.767Z,94766.56
2018-12-03T19:58:29.517Z,94764.02
2018-12-03T20:00:59.138Z,94758.61
2018-12-03T20:03:28.533Z,94761.28
2018-12-03T20:05:57.972Z,94760.55
2018-12-03T20:08:27.350Z,94784.64
2018-12-03T20:10:56.779Z,94771.58
2018-12-03T20:13:26.466Z,94773.47
2018-12-03T20:15:55.992Z,94790.08
2018-12-03T20:18:25.362Z,94791.05
2018-12-03T20:20:58.653Z,94809.27
2018-12-03T20:23:33.265Z,94805.80
2018-12-03T20:26:38.430Z,94800.39
2018-12-03T20:29:45.828Z,94865.13
2018-12-03T20:32:24.640Z,94859.19
2018-12-03T20:35:02.626Z,94849.03
2018-12-03T20:37:46.335Z,94862.73
2018-12-03T20:40:28.186Z,94861.00
2018-12-03T20:43:08.326Z,94848.36
2018-12-03T20:45:50.628Z,94860.39
2018-12-03T20:48:25.081Z,94843.50
2018-12-03T20:50:59.661Z,94855.93
2018-12-03T20:53:32.960Z,94847.46
2018-12-03T20:56:04.516Z,94853.85
2018-12-03T20:58:33.984Z,94860.52
2018-12-03T21:01:03.322Z,94857.59
2018-12-03T21:03:32.731Z,94872.34
2018-12-03T21:06:02.145Z,94878.66
2018-12-03T21:08:31.559Z,94890.91
2018-12-03T21:11:00.914Z,94883.08
2018-12-03T21:13:31.108Z,94905.36
2018-12-03T21:16:02.212Z,94912.22
2018-12-03T21:18:31.854Z,94924.36
2018-12-03T21:21:02.644Z,94931.03
2018-12-03T21:23:31.982Z,94920.13
2018-12-03T21:26:01.320Z,94932.12
2018-12-03T21:28:30.730Z,94934.55
2018-12-03T21:31:06.875Z,94939.07
2018-12-03T21:33:36.500Z,94954.23
2018-12-03T21:36:06.095Z,94948.16
2018-12-03T21:38:35.732Z,94960.94
2018-12-03T21:41:05.064Z,94959.02
2018-12-03T21:43:34.447Z,94963.59
2018-12-03T21:46:03.856Z,94966.52
2018-12-03T21:48:33.272Z,94984.41
2018-12-03T21:51:02.671Z,94986.23
2018-12-03T21:53:32.074Z,94994.02
2018-12-03T21:56:01.410Z,95005.29
2018-12-03T21:58:30.768Z,94998.28
2018-12-03T22:01:00.157Z,95023.97
2018-12-03T22:03:29.479Z,95024.03
2018-12-03T22:05:58.800Z,95029.97
2018-12-03T22:08:28.182Z,95096.64
2018-12-03T22:10:57.497Z,95036.34
2018-12-03T22:13:26.812Z,95048.86
2018-12-03T22:15:56.365Z,95041.38
2018-12-03T22:18:25.923Z,95061.87
2018-12-03T22:20:55.274Z,95059.24
2018-12-03T22:23:24.739Z,95075.84
2018-12-03T22:25:54.056Z,95075.34
2018-12-03T22:28:23.462Z,95090.78
2018-12-03T22:30:52.923Z,95078.91
2018-12-03T22:33:22.313Z,95101.00
2018-12-03T22:35:51.721Z,95107.21
2018-12-03T22:38:21.184Z,95118.11
2018-12-03T22:40:50.626Z,95112.58
2018-12-03T22:43:20.038Z,95107.52
2018-12-03T22:45:49.491Z,95135.97
2018-12-03T22:48:18.832Z,95108.83
2018-12-03T22:50:48.183Z,95133.88
2018-12-03T22:53:17.666Z,95126.71
2018-12-03T22:55:47.537Z,95136.13
2018-12-03T22:58:16.977Z,95119.72
2018-12-03T23:00:50.760Z,95121.66
2018-12-03T23:03:20.111Z,95132.05
2018-12-03T23:05:49.474Z,95123.95
2018-12-03T23:08:18.957Z,95147.02
2018-12-03T23:10:48.631Z,95130.12
2018-12-03T23:13:17.996Z,95138.58
2018-12-03T23:15:47.337Z,95119.05
2018-12-03T23:18:17.073Z,95168.48
2018-12-03T23:20:46.439Z,95145.41
2018-12-03T23:23:15.907Z,95145.55
2018-12-03T23:25:45.300Z,95156.59
2018-12-03T23:28:14.671Z,95156.25
2018-12-03T23:30:44.003Z,95169.25
2018-12-03T23:33:13.337Z,95175.59
2018-12-03T23:35:42.673Z,95168.60
2018-12-03T23:38:12.126Z,95186.00
2018-12-03T23:40:41.839Z,95194.98
2018-12-03T23:43:11.128Z,95185.20
2018-12-03T23:45:40.577Z,95189.44
2018-12-03T23:48:10.027Z,95031.98
2018-12-03T23:50:39.425Z,95199.04
2018-12-03T23:53:08.853Z,95206.48
2018-12-03T23:55:38.278Z,95204.05
2018-12-03T23:58:07.606Z,95207.29
